Time;durP1;ratioP1;P1;durP2;ratioP2;P2;SDS_P1;SDS_P2;PMS_P1;PMS_P2;Temp;Humidity;BMP_temperature;BMP_pressure;BME280_temperature;BME280_humidity;BME280_pressure;Samples;Min_cycle;Max_cycle;Signal;HPM_P1;HPM_P2
2023/01/06 00:01:32;;;;;;;47.13;13.27;;;10.20;96.80;;;;;;4838467;29;20049;-80
2023/01/06 00:03:58;;;;;;;36.88;12.82;;;10.20;96.70;;;;;;4834079;29;20200;-76
2023/01/06 00:06:28;;;;;;;35.05;13.18;;;10.20;96.60;;;;;;4843763;29;20058;-79
2023/01/06 00:08:55;;;;;;;33.80;12.43;;;10.20;96.60;;;;;;4834110;29;20052;-78
2023/01/06 00:11:21;;;;;;;38.72;13.25;;;10.20;96.50;;;;;;4824938;29;20054;-78
2023/01/06 00:13:47;;;;;;;39.10;13.25;;;10.30;96.40;;;;;;4844272;29;20141;-81
2023/01/06 00:16:15;;;;;;;42.80;13.55;;;10.30;96.80;;;;;;4836050;29;20061;-79
2023/01/06 00:18:41;;;;;;;34.75;13.40;;;10.30;96.40;;;;;;4848537;29;20099;-76
2023/01/06 00:21:07;;;;;;;32.58;13.65;;;10.30;96.40;;;;;;4827627;29;20121;-78
2023/01/06 00:23:34;;;;;;;41.40;14.60;;;10.30;96.30;;;;;;4833777;29;20543;-76
2023/01/06 00:26:00;;;;;;;42.63;14.02;;;10.30;96.20;;;;;;4839524;29;20050;-79
2023/01/06 00:28:25;;;;;;;44.42;13.98;;;10.30;96.20;;;;;;4829317;29;20057;-77
2023/01/06 00:30:51;;;;;;;42.47;14.15;;;10.30;96.20;;;;;;4829491;29;22087;-79
2023/01/06 00:33:17;;;;;;;45.40;13.30;;;10.30;96.20;;;;;;4818818;29;20074;-79
2023/01/06 00:35:42;;;;;;;37.20;13.70;;;10.30;96.20;;;;;;4823351;29;20141;-76
2023/01/06 00:38:08;;;;;;;36.58;13.18;;;10.30;96.20;;;;;;4829283;29;20029;-78
2023/01/06 00:40:36;;;;;;;40.42;13.18;;;10.30;96.20;;;;;;4846640;29;20045;-79
2023/01/06 00:43:02;;;;;;;39.30;12.90;;;10.30;96.20;;;;;;4840036;29;20509;-80
2023/01/06 00:45:27;;;;;;;38.20;12.73;;;10.30;96.10;;;;;;4844204;29;20050;-77
2023/01/06 00:47:53;;;;;;;34.17;11.52;;;10.30;96.10;;;;;;4836503;29;20054;-75
2023/01/06 00:50:19;;;;;;;36.20;11.82;;;10.30;96.10;;;;;;4834557;29;20487;-77
2023/01/06 00:52:47;;;;;;;33.72;11.75;;;10.30;95.90;;;;;;4836987;29;20605;-78
2023/01/06 00:55:13;;;;;;;36.75;12.20;;;10.40;95.80;;;;;;4832085;29;20053;-75
2023/01/06 00:57:39;;;;;;;31.60;11.90;;;10.40;95.80;;;;;;4839931;29;20045;-76
2023/01/06 01:00:07;;;;;;;30.85;12.18;;;10.40;95.70;;;;;;4832820;29;20061;-74
2023/01/06 01:02:32;;;;;;;24.73;11.43;;;10.40;95.60;;;;;;4842943;29;20046;-75
2023/01/06 01:04:58;;;;;;;31.98;11.15;;;10.40;95.50;;;;;;4834675;29;20046;-76
2023/01/06 01:07:24;;;;;;;24.13;11.63;;;10.40;95.40;;;;;;4832824;29;20066;-76
2023/01/06 01:09:49;;;;;;;25.15;11.23;;;10.40;95.40;;;;;;4831968;29;20054;-74
2023/01/06 01:12:15;;;;;;;24.38;11.43;;;10.40;95.40;;;;;;4822717;29;20411;-75
2023/01/06 01:14:49;;;;;;;29.15;11.70;;;10.50;95.20;;;;;;4831726;29;20092;-76
2023/01/06 01:17:18;;;;;;;25.25;11.90;;;10.50;95.10;;;;;;4832782;29;20780;-76
2023/01/06 01:19:44;;;;;;;25.30;12.40;;;10.50;95.10;;;;;;4830766;29;20062;-76
2023/01/06 01:22:10;;;;;;;20.02;10.27;;;10.50;95.10;;;;;;4832400;29;20128;-77
2023/01/06 01:24:36;;;;;;;19.88;9.48;;;10.50;95.10;;;;;;4829944;29;20670;-75
2023/01/06 01:27:02;;;;;;;22.73;10.50;;;10.60;95.00;;;;;;4831167;29;20755;-76
2023/01/06 01:29:27;;;;;;;22.75;10.07;;;10.40;95.00;;;;;;4815485;29;20042;-75
2023/01/06 01:31:53;;;;;;;24.17;10.68;;;10.30;95.10;;;;;;4832251;29;20037;-73
2023/01/06 01:34:19;;;;;;;23.30;9.63;;;10.30;95.10;;;;;;4834944;29;20099;-78
2023/01/06 01:36:46;;;;;;;17.63;8.65;;;10.30;95.10;;;;;;4832939;29;20045;-75
2023/01/06 01:39:13;;;;;;;19.27;8.48;;;10.30;95.10;;;;;;4829191;29;20092;-76
2023/01/06 01:41:40;;;;;;;15.95;8.90;;;10.30;95.20;;;;;;4837525;29;20041;-76
2023/01/06 01:44:43;;;;;;;21.27;9.95;;;10.30;95.20;;;;;;4838923;29;20057;-76
2023/01/06 01:47:10;;;;;;;19.92;9.98;;;10.30;95.20;;;;;;4833824;29;20533;-76
2023/01/06 01:49:38;;;;;;;16.30;8.95;;;10.30;95.10;;;;;;4835542;29;20054;-78
2023/01/06 01:52:06;;;;;;;21.00;9.88;;;10.30;95.00;;;;;;4833491;29;20077;-76
2023/01/06 01:54:34;;;;;;;18.98;9.63;;;10.30;95.10;;;;;;4838980;29;20537;-74
2023/01/06 01:57:08;;;;;;;22.45;9.70;;;10.30;95.00;;;;;;4830989;29;20137;-77
2023/01/06 01:59:37;;;;;;;19.58;9.77;;;10.30;95.00;;;;;;4833970;29;20102;-77
2023/01/06 02:02:03;;;;;;;20.90;10.23;;;10.30;95.00;;;;;;4836235;29;20057;-76
2023/01/06 02:04:33;;;;;;;19.00;10.55;;;10.30;95.30;;;;;;4836560;29;20046;-74
2023/01/06 02:07:00;;;;;;;16.27;9.10;;;10.30;94.90;;;;;;4831480;29;20056;-76
2023/01/06 02:09:26;;;;;;;17.60;9.35;;;10.30;94.90;;;;;;4832138;29;20106;-80
2023/01/06 02:11:53;;;;;;;21.75;9.70;;;10.40;94.90;;;;;;4831968;29;20340;-79
2023/01/06 02:14:23;;;;;;;18.25;9.23;;;10.30;94.80;;;;;;4833767;29;20164;-81
2023/01/06 02:17:08;;;;;;;21.63;9.30;;;10.30;94.80;;;;;;4834370;29;20153;-80
2023/01/06 02:19:40;;;;;;;23.23;8.68;;;10.30;94.70;;;;;;4839616;29;20089;-81
2023/01/06 02:22:36;;;;;;;19.52;8.43;;;10.30;94.80;;;;;;4840121;29;20094;-78
2023/01/06 02:25:27;;;;;;;17.17;8.43;;;10.30;94.70;;;;;;4838740;29;20049;-78
2023/01/06 02:28:20;;;;;;;21.65;8.75;;;10.30;94.70;;;;;;4824537;29;20084;-79
2023/01/06 02:31:40;;;;;;;20.92;8.10;;;10.30;94.50;;;;;;4838579;29;20092;-77
2023/01/06 02:34:15;;;;;;;18.20;7.50;;;10.30;94.40;;;;;;4836710;29;20046;-76
2023/01/06 02:36:51;;;;;;;20.77;8.23;;;10.30;94.40;;;;;;4837013;29;20077;-76
2023/01/06 02:39:32;;;;;;;11.88;6.88;;;10.30;94.40;;;;;;4841382;29;20557;-75
2023/01/06 02:42:39;;;;;;;16.75;7.43;;;10.30;94.20;;;;;;4840548;29;20156;-78
2023/01/06 02:45:34;;;;;;;15.25;6.38;;;10.30;94.00;;;;;;4836378;29;20498;-80
2023/01/06 02:48:19;;;;;;;17.52;7.65;;;10.30;93.90;;;;;;4835784;29;20506;-80
2023/01/06 02:50:51;;;;;;;13.45;6.82;;;10.30;94.10;;;;;;4838732;29;20044;-79
2023/01/06 02:53:24;;;;;;;13.05;7.20;;;10.30;94.00;;;;;;4826909;29;20494;-75
2023/01/06 02:55:55;;;;;;;17.38;7.07;;;10.30;93.90;;;;;;4833552;29;20057;-77
2023/01/06 02:58:28;;;;;;;12.70;6.68;;;10.30;93.90;;;;;;4833388;29;20026;-80
2023/01/06 03:01:14;;;;;;;15.10;6.25;;;10.30;93.90;;;;;;4822040;29;20052;-80
2023/01/06 03:03:42;;;;;;;18.27;6.30;;;10.30;94.20;;;;;;4837280;29;20049;-80
2023/01/06 03:06:15;;;;;;;11.90;6.22;;;10.30;93.70;;;;;;4827054;29;20046;-78
2023/01/06 03:08:44;;;;;;;13.73;6.03;;;10.30;93.80;;;;;;4831410;29;20062;-78
2023/01/06 03:11:10;;;;;;;11.45;5.63;;;10.30;93.70;;;;;;4835059;29;20066;-80
2023/01/06 03:13:40;;;;;;;11.07;6.25;;;10.30;93.60;;;;;;4833512;29;20518;-80
2023/01/06 03:16:07;;;;;;;11.85;5.70;;;10.30;93.60;;;;;;4833122;29;20102;-74
2023/01/06 03:18:33;;;;;;;9.38;5.93;;;10.30;93.60;;;;;;4832179;29;20452;-81
2023/01/06 03:21:04;;;;;;;12.90;5.93;;;10.30;93.60;;;;;;4834210;29;20337;-80
2023/01/06 03:23:31;;;;;;;14.70;5.45;;;10.30;93.60;;;;;;4824664;29;20064;-78
2023/01/06 03:25:56;;;;;;;10.90;5.97;;;10.30;93.50;;;;;;4826770;29;20042;-77
2023/01/06 03:28:22;;;;;;;10.60;6.05;;;10.40;93.40;;;;;;4811841;29;20106;-76
2023/01/06 03:30:57;;;;;;;11.25;5.88;;;10.30;93.40;;;;;;4833297;29;20054;-77
2023/01/06 03:33:30;;;;;;;12.38;6.60;;;10.30;93.10;;;;;;4835053;29;20046;-80
2023/01/06 03:36:23;;;;;;;9.95;6.53;;;10.30;93.30;;;;;;4829353;29;20826;-80
2023/01/06 03:39:04;;;;;;;10.95;5.65;;;10.30;93.30;;;;;;4844724;29;20065;-79
2023/01/06 03:43:10;;;;;;;12.90;6.50;;;10.30;93.20;;;;;;4834989;29;20050;-75
2023/01/06 03:44:28;;;;;;;9.90;5.90;;;10.40;93.30;;;;;;4832010;29;20090;-80
2023/01/06 03:47:03;;;;;;;10.23;5.93;;;10.30;93.30;;;;;;4837674;29;20142;-80
2023/01/06 03:49:37;;;;;;;11.38;6.38;;;10.30;93.30;;;;;;4844018;29;20128;-75
2023/01/06 03:52:16;;;;;;;10.52;6.28;;;10.30;93.30;;;;;;4841959;29;20109;-76
2023/01/06 03:54:51;;;;;;;;;;;10.30;93.20;;;;;;4831227;29;20046;-80
2023/01/06 03:57:26;;;;;;;15.38;6.20;;;10.20;93.10;;;;;;4825824;29;19932;-80
2023/01/06 04:00:01;;;;;;;17.83;7.43;;;10.20;93.20;;;;;;4834790;29;20141;-79
2023/01/06 04:02:27;;;;;;;10.43;6.63;;;10.20;93.30;;;;;;4835794;29;20057;-74
2023/01/06 04:05:13;;;;;;;12.68;6.63;;;10.20;93.20;;;;;;4842582;29;20090;-78
2023/01/06 04:07:42;;;;;;;13.65;6.82;;;10.20;93.00;;;;;;4824054;29;20033;-76
2023/01/06 04:10:09;;;;;;;12.05;6.53;;;10.30;93.10;;;;;;4834060;29;20049;-77
2023/01/06 04:12:37;;;;;;;13.20;6.15;;;10.30;93.10;;;;;;4845069;29;20041;-80
2023/01/06 04:15:24;;;;;;;9.10;6.00;;;10.30;93.10;;;;;;4830739;29;20058;-76
2023/01/06 04:17:51;;;;;;;13.43;6.38;;;10.30;92.80;;;;;;4833413;29;20376;-79
2023/01/06 04:20:19;;;;;;;9.65;5.95;;;10.30;93.00;;;;;;4835964;29;20109;-76
2023/01/06 04:22:45;;;;;;;9.65;5.90;;;10.30;92.80;;;;;;4835014;29;20042;-79
2023/01/06 04:25:11;;;;;;;8.63;5.68;;;10.30;92.80;;;;;;4833204;29;20054;-77
2023/01/06 04:27:37;;;;;;;9.32;5.32;;;10.30;92.80;;;;;;4835740;29;20052;-75
2023/01/06 04:30:04;;;;;;;9.32;4.82;;;10.30;92.70;;;;;;4838414;29;20054;-76
2023/01/06 04:32:30;;;;;;;8.43;4.88;;;10.30;92.60;;;;;;4838924;29;20986;-76
2023/01/06 04:34:55;;;;;;;8.68;4.78;;;10.30;92.50;;;;;;4846295;29;20128;-76
2023/01/06 04:37:21;;;;;;;12.68;5.05;;;10.30;92.50;;;;;;4832212;29;20050;-76
2023/01/06 04:39:47;;;;;;;7.15;4.25;;;10.30;92.60;;;;;;4825789;29;20078;-75
2023/01/06 04:42:13;;;;;;;9.05;4.30;;;10.30;92.60;;;;;;4831738;29;20450;-76
2023/01/06 04:44:38;;;;;;;6.70;4.05;;;10.30;92.50;;;;;;4836663;29;20069;-74
2023/01/06 04:47:04;;;;;;;6.40;4.20;;;10.30;92.50;;;;;;4818677;29;20507;-78
2023/01/06 04:49:29;;;;;;;7.72;3.97;;;10.20;92.50;;;;;;4828021;29;20046;-76
2023/01/06 04:51:55;;;;;;;5.53;4.13;;;10.30;92.40;;;;;;4843816;29;20053;-75
2023/01/06 04:54:21;;;;;;;5.40;3.38;;;10.30;92.30;;;;;;4822615;29;20563;-74
2023/01/06 04:56:46;;;;;;;5.63;3.60;;;10.30;92.20;;;;;;4835420;29;20057;-77
2023/01/06 04:59:12;;;;;;;6.75;4.25;;;10.40;92.20;;;;;;4832708;29;20054;-76
2023/01/06 05:01:37;;;;;;;6.85;3.95;;;10.30;92.20;;;;;;4831889;29;20094;-76
2023/01/06 05:04:06;;;;;;;8.52;4.28;;;10.30;92.10;;;;;;4831307;29;20126;-76
2023/01/06 05:06:32;;;;;;;9.63;4.50;;;10.30;92.10;;;;;;4829788;29;20050;-75
2023/01/06 05:08:57;;;;;;;9.38;4.68;;;10.30;92.20;;;;;;4836450;29;20479;-75
2023/01/06 05:11:25;;;;;;;6.95;5.22;;;10.30;92.20;;;;;;4834445;29;20102;-76
2023/01/06 05:13:51;;;;;;;7.97;5.55;;;10.20;92.30;;;;;;4828642;29;20100;-75
2023/01/06 05:16:21;;;;;;;11.75;5.85;;;10.20;92.30;;;;;;4824436;29;20355;-74
2023/01/06 05:18:46;;;;;;;11.30;6.15;;;10.20;92.30;;;;;;4827742;29;20059;-73
2023/01/06 05:21:12;;;;;;;8.38;6.82;;;10.20;92.40;;;;;;4814931;29;20117;-76
2023/01/06 05:23:39;;;;;;;9.70;6.70;;;10.20;92.30;;;;;;4830174;29;20488;-75
2023/01/06 05:26:05;;;;;;;11.57;7.47;;;10.20;92.40;;;;;;4836391;29;20034;-75
2023/01/06 05:28:32;;;;;;;11.77;7.88;;;10.20;92.30;;;;;;4834781;29;20046;-74
2023/01/06 05:31:02;;;;;;;9.68;7.75;;;10.20;92.40;;;;;;4835122;29;20502;-75
2023/01/06 05:33:28;;;;;;;8.95;7.90;;;10.20;92.20;;;;;;4835447;29;20511;-76
2023/01/06 05:36:01;;;;;;;12.82;7.35;;;10.20;92.20;;;;;;4826848;29;20058;-75
2023/01/06 05:38:27;;;;;;;12.73;7.75;;;10.30;92.20;;;;;;4836302;29;20057;-78
2023/01/06 05:40:53;;;;;;;10.80;7.25;;;10.20;92.20;;;;;;4836857;29;20050;-75
2023/01/06 05:43:23;;;;;;;9.60;6.95;;;10.20;92.40;;;;;;4837252;29;20085;-75
2023/01/06 05:45:48;;;;;;;9.27;7.28;;;10.20;92.50;;;;;;4821090;29;20077;-75
2023/01/06 05:48:14;;;;;;;9.30;6.47;;;10.20;92.50;;;;;;4830599;29;20379;-80
2023/01/06 05:50:40;;;;;;;10.75;6.13;;;10.20;92.50;;;;;;4825903;29;20487;-74
2023/01/06 05:53:06;;;;;;;14.52;6.20;;;10.20;92.50;;;;;;4822954;29;20053;-76
2023/01/06 05:55:31;;;;;;;7.85;5.40;;;10.20;92.50;;;;;;4820831;29;20049;-77
2023/01/06 05:57:57;;;;;;;6.75;5.20;;;10.20;92.40;;;;;;4838087;29;20439;-76
2023/01/06 06:00:23;;;;;;;9.40;5.40;;;10.20;92.20;;;;;;4835075;29;20046;-76
2023/01/06 06:02:48;;;;;;;8.77;5.63;;;10.20;92.30;;;;;;4827554;29;20052;-77
2023/01/06 06:05:14;;;;;;;7.88;5.22;;;10.20;92.40;;;;;;4841662;29;20053;-79
2023/01/06 06:07:39;;;;;;;9.07;5.68;;;10.20;92.50;;;;;;4836991;29;20078;-79
2023/01/06 06:10:06;;;;;;;8.73;5.38;;;10.20;92.70;;;;;;4840001;29;20084;-79
2023/01/06 06:12:32;;;;;;;8.60;5.82;;;10.10;92.70;;;;;;4835616;29;20074;-78
2023/01/06 06:14:57;;;;;;;8.75;5.78;;;10.10;92.90;;;;;;4847945;29;20665;-79
2023/01/06 06:17:24;;;;;;;10.07;6.10;;;10.10;93.00;;;;;;4833126;29;20058;-80
2023/01/06 06:19:49;;;;;;;7.47;6.50;;;10.00;93.10;;;;;;4831410;29;20052;-80
2023/01/06 06:22:15;;;;;;;11.10;6.38;;;10.00;93.20;;;;;;4841221;29;20410;-78
2023/01/06 06:24:41;;;;;;;11.57;6.97;;;10.00;93.30;;;;;;4832162;29;20406;-80
2023/01/06 06:27:06;;;;;;;9.57;7.20;;;10.00;93.40;;;;;;4847030;29;20061;-75
2023/01/06 06:29:32;;;;;;;9.98;7.82;;;10.00;93.50;;;;;;4835671;29;20050;-78
2023/01/06 06:31:57;;;;;;;14.23;7.38;;;10.00;93.50;;;;;;4840081;29;20098;-80
2023/01/06 06:34:23;;;;;;;10.05;7.55;;;10.00;93.60;;;;;;4835357;29;20038;-79
2023/01/06 06:36:48;;;;;;;10.90;7.80;;;10.00;93.60;;;;;;4838747;29;20045;-75
2023/01/06 06:39:14;;;;;;;14.40;7.97;;;10.00;93.60;;;;;;4827835;29;20573;-76
2023/01/06 06:41:40;;;;;;;13.35;8.30;;;10.00;93.80;;;;;;4833752;29;20132;-75
2023/01/06 06:44:05;;;;;;;11.90;8.45;;;9.90;93.80;;;;;;4838054;29;20137;-78
2023/01/06 06:46:31;;;;;;;11.80;7.97;;;9.90;93.80;;;;;;4827413;29;20849;-74
2023/01/06 06:48:56;;;;;;;13.60;8.43;;;9.90;94.00;;;;;;4837536;29;20128;-79
2023/01/06 06:51:22;;;;;;;10.77;7.93;;;9.90;93.90;;;;;;4834744;29;20053;-75
2023/01/06 06:53:48;;;;;;;10.20;8.68;;;9.90;93.90;;;;;;4831031;29;20050;-78
2023/01/06 06:56:15;;;;;;;10.55;8.27;;;10.00;94.10;;;;;;4841109;29;20069;-79
2023/01/06 06:58:41;;;;;;;14.15;8.07;;;10.00;94.10;;;;;;4832395;29;20690;-74
2023/01/06 07:01:09;;;;;;;10.82;8.32;;;9.90;94.20;;;;;;4825532;29;20057;-78
2023/01/06 07:03:35;;;;;;;13.10;8.18;;;9.90;94.30;;;;;;4843639;29;20864;-74
2023/01/06 07:06:02;;;;;;;11.40;8.30;;;9.90;94.40;;;;;;4836692;29;20042;-75
2023/01/06 07:08:28;;;;;;;10.68;8.43;;;9.90;94.40;;;;;;4832181;29;20053;-77
2023/01/06 07:10:54;;;;;;;12.13;9.05;;;9.90;94.60;;;;;;4826184;29;20491;-73
2023/01/06 07:13:20;;;;;;;9.95;7.90;;;9.80;94.80;;;;;;4820306;29;20045;-73
2023/01/06 07:15:45;;;;;;;12.90;8.20;;;9.80;94.90;;;;;;4829370;29;20145;-79
2023/01/06 07:18:11;;;;;;;8.88;7.75;;;9.80;95.00;;;;;;4822120;29;20097;-78
2023/01/06 07:20:38;;;;;;;9.40;7.45;;;9.80;95.30;;;;;;4832228;29;20089;-76
2023/01/06 07:23:04;;;;;;;10.25;7.43;;;9.80;95.30;;;;;;4824287;29;20057;-78
2023/01/06 07:25:30;;;;;;;10.02;7.45;;;9.80;95.40;;;;;;4826441;29;20053;-74
2023/01/06 07:27:58;;;;;;;11.60;7.80;;;9.80;95.40;;;;;;4830313;29;20403;-76
2023/01/06 07:30:25;;;;;;;8.90;7.88;;;9.70;95.60;;;;;;4835432;29;20057;-77
2023/01/06 07:32:51;;;;;;;9.15;7.55;;;9.70;95.70;;;;;;4832932;29;20557;-74
2023/01/06 07:35:17;;;;;;;9.88;7.60;;;9.70;95.70;;;;;;4832121;29;20074;-75
2023/01/06 07:37:43;;;;;;;9.52;7.03;;;9.70;95.90;;;;;;4831046;29;20137;-75
2023/01/06 07:40:09;;;;;;;8.93;6.32;;;9.70;95.90;;;;;;4839345;29;20045;-79
2023/01/06 07:42:35;;;;;;;8.05;6.53;;;9.70;96.00;;;;;;4840743;29;20399;-75
2023/01/06 07:45:01;;;;;;;6.88;6.10;;;9.70;96.10;;;;;;4837091;29;20053;-76
2023/01/06 07:47:27;;;;;;;9.98;7.32;;;9.70;96.10;;;;;;4833343;29;20748;-74
2023/01/06 07:49:52;;;;;;;8.73;6.03;;;9.70;96.10;;;;;;4823156;29;20056;-75
2023/01/06 07:52:18;;;;;;;8.90;6.03;;;9.70;96.10;;;;;;4834636;29;20053;-76
2023/01/06 07:54:44;;;;;;;6.53;5.28;;;9.70;96.10;;;;;;4834366;29;20045;-75
2023/01/06 07:57:09;;;;;;;6.50;3.70;;;9.70;96.10;;;;;;4839289;29;20045;-76
2023/01/06 07:59:35;;;;;;;4.60;2.88;;;9.80;95.70;;;;;;4833911;29;20558;-76
2023/01/06 08:02:00;;;;;;;5.68;3.08;;;9.80;95.50;;;;;;4835623;29;20098;-74
2023/01/06 08:04:26;;;;;;;7.68;2.70;;;9.90;95.50;;;;;;4837725;29;20053;-75
2023/01/06 08:06:51;;;;;;;5.93;2.90;;;9.90;95.50;;;;;;4831389;29;20052;-75
2023/01/06 08:09:17;;;;;;;4.63;1.80;;;9.90;95.50;;;;;;4827377;29;20052;-78
2023/01/06 08:11:42;;;;;;;5.50;2.40;;;9.80;95.20;;;;;;4832053;29;20038;-76
2023/01/06 08:14:10;;;;;;;4.90;2.63;;;9.80;95.00;;;;;;4839792;29;20128;-76
2023/01/06 08:16:37;;;;;;;7.55;2.47;;;9.70;94.70;;;;;;4838634;29;20041;-75
2023/01/06 08:19:03;;;;;;;7.18;2.30;;;9.60;94.70;;;;;;4835864;29;20118;-74
2023/01/06 08:21:29;;;;;;;4.95;1.75;;;9.50;94.60;;;;;;4835717;29;20045;-75
2023/01/06 08:23:54;;;;;;;2.78;1.40;;;9.40;94.50;;;;;;4815423;29;20053;-79
2023/01/06 08:26:20;;;;;;;2.13;1.33;;;9.30;94.50;;;;;;4822193;29;20049;-76
2023/01/06 08:28:46;;;;;;;6.22;1.50;;;9.20;94.30;;;;;;4837788;29;20062;-76
2023/01/06 08:31:17;;;;;;;4.40;1.55;;;9.20;94.30;;;;;;4828170;29;20416;-75
2023/01/06 08:33:43;;;;;;;5.50;1.50;;;9.10;94.20;;;;;;4833326;29;20041;-76
2023/01/06 08:36:13;;;;;;;5.97;1.30;;;9.00;94.20;;;;;;4840886;29;20655;-76
2023/01/06 08:38:40;;;;;;;6.22;1.30;;;9.00;94.20;;;;;;4833553;29;20161;-75
2023/01/06 08:43:55;;;;;;;4.55;1.20;;;9.00;94.00;;;;;;5152241;23;20433;-78
2023/01/06 08:46:21;;;;;;;4.47;1.40;;;8.90;93.90;;;;;;4826024;29;20053;-80
2023/01/06 08:48:47;;;;;;;4.72;1.15;;;8.90;94.00;;;;;;4827269;29;20073;-79
2023/01/06 08:51:15;;;;;;;4.78;1.15;;;8.90;93.80;;;;;;4811805;29;20050;-75
2023/01/06 08:53:42;;;;;;;4.70;1.10;;;8.90;93.70;;;;;;4841440;29;20064;-79
2023/01/06 08:56:20;;;;;;;4.50;1.17;;;8.90;93.60;;;;;;4826845;29;20072;-78
2023/01/06 08:59:10;;;;;;;4.40;1.40;;;8.80;93.60;;;;;;4810610;29;20130;-77
2023/01/06 09:01:36;;;;;;;4.60;1.10;;;8.80;93.50;;;;;;4829875;29;20101;-76
2023/01/06 09:04:04;;;;;;;6.47;1.00;;;8.80;93.40;;;;;;4828321;29;20180;-75
2023/01/06 09:06:30;;;;;;;4.45;1.13;;;8.80;93.10;;;;;;4827461;29;20073;-77
2023/01/06 09:08:57;;;;;;;5.15;1.33;;;8.80;92.90;;;;;;4813622;29;20043;-78
2023/01/06 09:11:24;;;;;;;8.73;1.08;;;8.80;92.90;;;;;;4829036;29;20690;-80
2023/01/06 09:13:50;;;;;;;7.22;1.17;;;8.80;92.90;;;;;;4828660;29;20034;-77
2023/01/06 09:16:16;;;;;;;5.40;1.00;;;8.80;92.70;;;;;;4825770;29;20074;-79
2023/01/06 09:18:47;;;;;;;4.10;0.95;;;8.80;92.90;;;;;;4828893;29;20068;-76
2023/01/06 09:21:13;;;;;;;6.07;0.95;;;8.70;93.10;;;;;;4826968;29;20166;-77
2023/01/06 09:23:39;;;;;;;9.65;1.10;;;8.80;92.70;;;;;;4830372;29;20053;-76
2023/01/06 09:26:04;;;;;;;8.07;1.10;;;8.80;92.70;;;;;;4828855;29;20053;-77
2023/01/06 09:28:31;;;;;;;8.30;1.00;;;8.80;92.50;;;;;;4828078;29;20046;-78
2023/01/06 09:30:56;;;;;;;8.65;2.17;;;8.80;92.50;;;;;;4830098;29;20551;-79
2023/01/06 09:33:22;;;;;;;13.55;1.48;;;8.80;92.40;;;;;;4826516;29;20038;-77
2023/01/06 09:35:48;;;;;;;5.82;1.30;;;8.90;92.30;;;;;;4829493;29;20464;-79
2023/01/06 09:38:14;;;;;;;6.55;1.15;;;8.90;92.30;;;;;;4824627;29;20054;-75
2023/01/06 09:40:58;;;;;;;8.75;1.30;;;8.90;92.30;;;;;;4830092;29;20065;-75
2023/01/06 09:43:41;;;;;;;10.73;1.38;;;8.90;92.20;;;;;;4840509;29;20144;-79
2023/01/06 09:46:09;;;;;;;8.80;1.70;;;9.00;92.20;;;;;;4824727;29;20065;-79
2023/01/06 09:48:41;;;;;;;12.63;1.63;;;9.00;92.30;;;;;;4823330;29;20045;-80
2023/01/06 09:51:13;;;;;;;12.05;1.90;;;9.00;92.20;;;;;;4826860;29;20267;-76
2023/01/06 09:53:43;;;;;;;9.23;1.42;;;9.00;92.00;;;;;;4831988;29;20081;-77
2023/01/06 09:56:14;;;;;;;10.15;1.92;;;9.10;92.00;;;;;;4831854;29;20097;-76
2023/01/06 09:58:49;;;;;;;12.40;1.70;;;9.10;92.00;;;;;;4829896;29;20511;-75
2023/01/06 10:01:21;;;;;;;10.20;1.42;;;9.10;91.70;;;;;;4831553;29;20053;-79
2023/01/06 10:03:47;;;;;;;10.30;2.05;;;9.10;91.60;;;;;;4827355;29;20046;-75
2023/01/06 10:06:37;;;;;;;16.05;1.80;;;9.20;91.70;;;;;;4834456;29;20106;-75
2023/01/06 10:09:12;;;;;;;9.43;2.08;;;9.20;91.00;;;;;;4836261;29;20522;-78
2023/01/06 10:12:00;;;;;;;13.48;1.92;;;9.30;91.40;;;;;;4834262;29;20706;-79
2023/01/06 10:14:45;;;;;;;13.20;1.80;;;9.30;91.40;;;;;;4833134;29;20117;-74
2023/01/06 10:17:34;;;;;;;12.23;1.70;;;9.30;91.50;;;;;;4822498;29;20149;-77
2023/01/06 10:20:18;;;;;;;9.40;1.45;;;9.30;91.40;;;;;;4845545;29;20046;-77
2023/01/06 10:22:55;;;;;;;19.25;1.75;;;9.40;91.00;;;;;;4830047;29;20079;-75
2023/01/06 10:25:31;;;;;;;11.25;1.50;;;9.40;91.00;;;;;;4832878;29;20045;-76
2023/01/06 10:28:21;;;;;;;9.35;1.45;;;9.40;91.00;;;;;;4828724;29;20137;-75
2023/01/06 10:30:51;;;;;;;17.60;1.42;;;9.30;90.80;;;;;;4838322;29;20061;-76
2023/01/06 10:33:32;;;;;;;8.00;1.38;;;9.30;91.00;;;;;;4833053;29;20042;-75
2023/01/06 10:35:58;;;;;;;10.50;1.48;;;9.50;90.70;;;;;;4834901;29;20046;-76
2023/01/06 10:38:39;;;;;;;13.95;1.35;;;9.30;90.70;;;;;;4818283;29;20049;-75
2023/01/06 10:41:13;;;;;;;11.32;1.38;;;9.40;90.70;;;;;;4833981;29;20066;-75
2023/01/06 10:43:38;;;;;;;9.70;1.20;;;9.40;90.70;;;;;;4828198;29;20574;-79
2023/01/06 10:46:04;;;;;;;14.15;1.70;;;9.40;90.50;;;;;;4828178;29;20043;-77
2023/01/06 10:48:32;;;;;;;13.23;1.63;;;9.40;90.60;;;;;;4829833;29;20056;-76
2023/01/06 10:51:05;;;;;;;14.35;1.60;;;9.40;90.60;;;;;;4829484;29;20109;-76
2023/01/06 10:53:31;;;;;;;15.38;4.18;;;9.40;90.60;;;;;;4828781;29;20050;-79
2023/01/06 10:55:59;;;;;;;12.10;1.90;;;9.50;90.60;;;;;;4830210;29;20053;-78
2023/01/06 10:58:30;;;;;;;9.93;1.52;;;9.60;90.20;;;;;;4828180;29;20053;-74
2023/01/06 11:01:16;;;;;;;13.95;3.38;;;9.60;90.10;;;;;;4830668;29;20049;-75
2023/01/06 11:03:44;;;;;;;13.40;1.70;;;9.60;90.10;;;;;;4827057;29;20058;-75
2023/01/06 11:06:30;;;;;;;15.75;1.98;;;9.70;90.10;;;;;;4832188;29;20498;-75
2023/01/06 11:08:56;;;;;;;8.82;1.30;;;9.70;90.00;;;;;;4830017;29;20046;-75
2023/01/06 11:11:23;;;;;;;8.88;1.45;;;9.80;90.20;;;;;;4829779;29;20068;-75
2023/01/06 11:13:59;;;;;;;13.48;1.75;;;9.80;90.10;;;;;;4825229;29;20054;-78
2023/01/06 11:16:30;;;;;;;11.90;1.63;;;9.90;90.10;;;;;;4813982;29;20131;-74
2023/01/06 11:19:04;;;;;;;15.00;1.83;;;9.90;89.40;;;;;;4834715;29;20091;-77
2023/01/06 11:21:46;;;;;;;11.13;1.58;;;9.90;88.70;;;;;;4832748;29;20057;-75
2023/01/06 11:24:18;;;;;;;11.38;1.75;;;10.00;88.20;;;;;;4834212;29;20076;-76
2023/01/06 11:26:49;;;;;;;11.77;1.83;;;10.10;88.30;;;;;;4832217;29;20084;-76
2023/01/06 11:29:26;;;;;;;15.52;1.85;;;10.10;88.20;;;;;;4833506;29;20041;-76
2023/01/06 11:31:53;;;;;;;8.90;1.25;;;10.10;87.60;;;;;;4835028;29;20046;-76
2023/01/06 11:34:24;;;;;;;11.20;1.48;;;10.10;86.40;;;;;;4834121;29;20049;-76
2023/01/06 11:36:51;;;;;;;6.53;1.65;;;10.00;86.50;;;;;;4833309;29;20529;-77
2023/01/06 11:39:25;;;;;;;10.77;1.63;;;10.00;87.50;;;;;;4833075;29;20064;-75
2023/01/06 11:41:54;;;;;;;9.73;1.40;;;10.00;86.90;;;;;;4833702;29;20414;-77
2023/01/06 11:44:25;;;;;;;10.25;1.65;;;10.00;86.70;;;;;;4831535;29;20068;-74
2023/01/06 11:46:55;;;;;;;9.77;1.52;;;10.10;86.60;;;;;;4832703;29;20149;-76
2023/01/06 11:49:35;;;;;;;10.32;1.50;;;10.10;86.30;;;;;;4831866;29;20130;-77
2023/01/06 11:52:05;;;;;;;12.65;1.90;;;10.10;85.70;;;;;;4829583;29;20042;-75
2023/01/06 11:54:38;;;;;;;15.32;1.70;;;10.10;86.10;;;;;;4831793;29;20621;-76
2023/01/06 11:57:22;;;;;;;9.30;1.45;;;10.10;85.30;;;;;;4830091;29;20050;-76
2023/01/06 11:59:56;;;;;;;11.13;1.80;;;10.20;85.60;;;;;;4826715;29;21447;-74
2023/01/06 12:02:36;;;;;;;9.57;1.65;;;10.20;85.60;;;;;;4829037;29;20085;-74
2023/01/06 12:05:05;;;;;;;16.27;1.83;;;10.20;85.50;;;;;;4829642;29;20074;-77
2023/01/06 12:07:50;;;;;;;10.80;1.63;;;10.40;84.70;;;;;;4830635;29;20507;-75
2023/01/06 12:10:22;;;;;;;9.82;1.77;;;10.40;84.30;;;;;;4814338;29;20053;-76
2023/01/06 12:12:48;;;;;;;8.73;1.92;;;10.50;84.00;;;;;;4826855;29;20144;-74
2023/01/06 12:15:15;;;;;;;12.65;1.73;;;10.50;83.00;;;;;;4825594;29;20053;-77
2023/01/06 12:17:42;;;;;;;12.65;1.60;;;10.50;83.80;;;;;;4828101;29;20530;-74
2023/01/06 12:20:19;;;;;;;16.35;1.95;;;10.50;84.40;;;;;;4828067;29;20162;-74
2023/01/06 12:22:49;;;;;;;15.07;2.40;;;10.40;83.50;;;;;;4825595;29;20738;-74
2023/01/06 12:25:28;;;;;;;8.88;1.48;;;10.40;84.20;;;;;;4827575;29;20050;-76
2023/01/06 12:28:03;;;;;;;11.10;1.85;;;10.30;83.90;;;;;;4828316;29;20092;-79
2023/01/06 12:30:42;;;;;;;10.88;1.58;;;10.30;84.10;;;;;;4826044;29;20050;-75
2023/01/06 12:33:34;;;;;;;9.95;1.92;;;10.20;84.30;;;;;;4827027;29;20057;-74
2023/01/06 12:36:03;;;;;;;18.67;2.75;;;10.20;83.60;;;;;;4817740;29;20054;-76
2023/01/06 12:38:32;;;;;;;11.35;2.10;;;10.20;84.30;;;;;;4830385;29;20638;-75
2023/01/06 12:41:06;;;;;;;11.80;2.20;;;10.10;84.50;;;;;;4829728;29;20058;-75
2023/01/06 12:43:36;;;;;;;8.25;1.95;;;10.10;84.60;;;;;;4828110;29;20410;-74
2023/01/06 12:46:18;;;;;;;11.77;2.13;;;10.00;84.70;;;;;;4828148;29;20065;-74
2023/01/06 12:48:51;;;;;;;16.45;2.88;;;10.00;84.30;;;;;;4827127;29;20506;-76
2023/01/06 12:51:43;;;;;;;11.13;1.67;;;9.90;84.60;;;;;;4829939;29;20046;-74
2023/01/06 12:54:17;;;;;;;17.27;2.13;;;9.90;83.80;;;;;;4829941;29;20066;-74
2023/01/06 12:57:04;;;;;;;11.77;2.20;;;9.80;84.80;;;;;;4826966;29;20053;-76
2023/01/06 12:59:45;;;;;;;13.30;2.50;;;9.80;85.10;;;;;;4832812;29;20577;-76
2023/01/06 13:02:23;;;;;;;13.98;2.47;;;9.80;85.20;;;;;;4831744;29;20064;-76